createdAt,value
2018-09-19T00:00:48.636Z,4.10
2018-09-19T00:03:16.575Z,3.23
2018-09-19T00:05:44.197Z,3.67
2018-09-19T00:08:12.307Z,3.73
2018-09-19T00:10:40.204Z,4.83
2018-09-19T00:13:07.956Z,3.60
2018-09-19T00:15:35.774Z,3.10
2018-09-19T00:20:31.220Z,4.03
2018-09-19T00:22:59.053Z,3.23
2018-09-19T00:25:26.949Z,6.53
2018-09-19T00:27:54.703Z,3.93
2018-09-19T00:30:22.530Z,4.08
2018-09-19T00:32:50.206Z,4.93
2018-09-19T00:35:17.981Z,3.57
2018-09-19T00:37:45.875Z,3.20
2018-09-19T00:40:13.850Z,3.85
2018-09-19T00:42:41.780Z,3.60
2018-09-19T00:45:09.605Z,3.83
2018-09-19T00:47:37.514Z,3.93
2018-09-19T00:50:05.553Z,3.77
2018-09-19T00:52:33.374Z,3.40
2018-09-19T00:55:01.075Z,3.63
2018-09-19T00:57:28.757Z,3.80
2018-09-19T00:59:56.589Z,3.20
2018-09-19T01:02:24.345Z,3.77
2018-09-19T01:07:19.453Z,3.75
2018-09-19T01:09:47.569Z,3.80
2018-09-19T01:12:15.581Z,3.43
2018-09-19T01:14:43.526Z,3.20
2018-09-19T01:17:11.522Z,3.50
2018-09-19T01:19:39.582Z,3.43
2018-09-19T01:22:13.662Z,3.03
2018-09-19T01:24:41.522Z,3.40
2018-09-19T01:27:09.577Z,3.47
2018-09-19T01:29:37.581Z,3.60
2018-09-19T01:34:32.854Z,3.67
2018-09-19T01:37:00.711Z,3.47
2018-09-19T01:39:28.954Z,3.70
2018-09-19T01:41:56.966Z,3.62
2018-09-19T01:44:24.874Z,3.40
2018-09-19T01:46:52.734Z,3.65
2018-09-19T01:49:20.603Z,3.50
2018-09-19T01:51:52.587Z,3.33
2018-09-19T01:54:20.616Z,3.63
2018-09-19T01:56:48.880Z,3.30
2018-09-19T01:59:16.794Z,3.47
2018-09-19T02:01:44.854Z,4.00
2018-09-19T02:04:12.730Z,3.93
2018-09-19T02:06:40.586Z,4.17
2018-09-19T02:09:10.239Z,4.40
2018-09-19T02:11:38.223Z,3.83
2018-09-19T02:14:06.518Z,3.93
2018-09-19T02:19:01.762Z,3.30
2018-09-19T02:21:29.632Z,3.40
2018-09-19T02:23:57.903Z,3.67
2018-09-19T02:26:25.722Z,3.50
2018-09-19T02:28:53.578Z,3.65
2018-09-19T02:33:49.245Z,3.90
2018-09-19T02:36:21.841Z,5.87
2018-09-19T02:38:51.014Z,3.30
2018-09-19T02:43:46.888Z,3.42
2018-09-19T02:48:42.765Z,3.40
2018-09-19T02:51:11.505Z,3.33
2018-09-19T02:53:39.410Z,3.57
2018-09-19T02:56:07.380Z,3.30
2018-09-19T02:58:35.227Z,3.80
2018-09-19T03:01:03.021Z,3.40
2018-09-19T03:05:58.329Z,3.27
2018-09-19T03:08:26.050Z,3.70
2018-09-19T03:10:53.894Z,3.53
2018-09-19T03:13:22.018Z,3.98
2018-09-19T03:18:17.207Z,3.90
2018-09-19T03:20:45.225Z,3.63
2018-09-19T03:23:12.970Z,3.45
2018-09-19T03:25:40.833Z,3.10
2018-09-19T03:28:09.037Z,3.72
2018-09-19T03:30:37.158Z,3.77
2018-09-19T03:33:05.362Z,3.40
2018-09-19T03:35:34.079Z,2.60
2018-09-19T03:38:02.715Z,3.50
2018-09-19T03:40:31.031Z,3.60
2018-09-19T03:42:58.995Z,3.37
2018-09-19T03:45:26.782Z,3.60
2018-09-19T03:47:54.588Z,3.25
2018-09-19T03:50:22.411Z,3.97
2018-09-19T03:52:50.211Z,3.50
2018-09-19T03:55:17.930Z,3.60
2018-09-19T03:57:46.027Z,3.70
2018-09-19T04:00:13.909Z,3.30
2018-09-19T04:02:41.751Z,3.40
2018-09-19T04:05:09.716Z,3.70
2018-09-19T04:07:37.621Z,3.80
2018-09-19T04:10:05.626Z,3.53
2018-09-19T04:12:33.457Z,3.23
2018-09-19T04:15:01.199Z,5.37
2018-09-19T04:17:29.193Z,3.50
2018-09-19T04:19:56.765Z,4.03
2018-09-19T04:22:24.554Z,3.60
2018-09-19T04:24:52.496Z,3.60
2018-09-19T04:27:20.184Z,3.67
2018-09-19T04:29:47.917Z,3.37
2018-09-19T04:32:15.813Z,3.65
2018-09-19T04:34:43.550Z,3.07
2018-09-19T04:37:11.311Z,3.40
2018-09-19T04:39:39.047Z,3.93
2018-09-19T04:42:07.222Z,3.57
2018-09-19T04:44:34.998Z,3.50
2018-09-19T04:47:02.977Z,3.10
2018-09-19T04:49:30.685Z,3.43
2018-09-19T04:51:58.521Z,3.20
2018-09-19T04:54:26.498Z,3.23
2018-09-19T04:56:54.194Z,3.20
2018-09-19T04:59:21.975Z,4.33
2018-09-19T05:04:17.669Z,3.23
2018-09-19T05:06:45.657Z,3.90
2018-09-19T05:09:13.562Z,4.03
2018-09-19T05:11:41.471Z,3.47
2018-09-19T05:16:37.024Z,3.92
2018-09-19T05:21:32.220Z,4.33
2018-09-19T05:23:59.937Z,3.65
2018-09-19T05:26:27.877Z,9.80
2018-09-19T05:28:55.626Z,7.70
2018-09-19T05:31:23.552Z,3.97
2018-09-19T05:33:51.214Z,4.95
2018-09-19T05:36:19.009Z,10.33
2018-09-19T05:38:46.846Z,5.80
2018-09-19T05:41:14.730Z,7.33
2018-09-19T05:43:42.596Z,6.27
2018-09-19T05:46:10.574Z,8.30
2018-09-19T05:48:38.526Z,11.40
2018-09-19T05:51:06.211Z,8.00
2018-09-19T05:56:01.376Z,7.60
2018-09-19T05:58:29.055Z,11.67
2018-09-19T06:00:56.937Z,5.40
2018-09-19T06:03:25.475Z,5.97
2018-09-19T06:05:53.220Z,6.00
2018-09-19T06:08:20.916Z,5.17
2018-09-19T06:10:48.718Z,7.53
2018-09-19T06:13:16.574Z,8.73
2018-09-19T06:15:44.221Z,6.97
2018-09-19T06:18:11.897Z,5.00
2018-09-19T06:20:39.673Z,3.90
2018-09-19T06:23:07.468Z,9.43
2018-09-19T06:25:35.354Z,8.93
2018-09-19T06:28:03.033Z,5.63
2018-09-19T06:30:30.922Z,6.50
2018-09-19T06:32:58.807Z,5.75
2018-09-19T06:35:26.556Z,4.63
2018-09-19T06:37:54.425Z,5.40
2018-09-19T06:40:22.055Z,4.80
2018-09-19T06:42:49.864Z,5.83
2018-09-19T06:45:17.721Z,8.40
2018-09-19T06:47:45.588Z,5.77
2018-09-19T06:50:13.619Z,7.37
2018-09-19T06:52:41.199Z,5.03
2018-09-19T06:55:08.760Z,4.20
2018-09-19T06:57:36.598Z,6.85
2018-09-19T07:02:32.191Z,5.57
2018-09-19T07:04:59.906Z,6.50
2018-09-19T07:07:27.911Z,4.67
2018-09-19T07:09:55.680Z,6.27
2018-09-19T07:12:23.369Z,7.92
2018-09-19T07:14:51.092Z,5.63
2018-09-19T07:17:18.935Z,6.37
2018-09-19T07:19:46.711Z,7.37
2018-09-19T07:22:14.510Z,6.03
2018-09-19T07:24:42.196Z,7.57
2018-09-19T07:27:10.049Z,7.75
2018-09-19T07:29:37.955Z,7.20
2018-09-19T07:32:05.870Z,12.20
2018-09-19T07:34:33.610Z,6.80
2018-09-19T07:37:01.555Z,7.37
2018-09-19T07:39:29.211Z,6.37
2018-09-19T07:41:56.763Z,5.30
2018-09-19T07:44:24.584Z,4.67
2018-09-19T07:46:52.193Z,5.60
2018-09-19T07:49:20.062Z,5.10
2018-09-19T07:51:47.977Z,7.50
2018-09-19T07:56:43.240Z,10.80
2018-09-19T07:59:10.965Z,6.00
2018-09-19T08:01:38.929Z,8.13
2018-09-19T08:04:06.794Z,5.43
2018-09-19T08:09:02.032Z,8.00
2018-09-19T08:13:57.486Z,4.92
2018-09-19T08:16:25.215Z,6.85
2018-09-19T08:18:52.979Z,5.83
2018-09-19T08:23:48.283Z,6.67
2018-09-19T08:26:16.055Z,5.50
2018-09-19T08:28:43.931Z,4.47
2018-09-19T08:31:11.749Z,7.27
2018-09-19T08:36:06.678Z,4.80
2018-09-19T08:38:34.526Z,6.27
2018-09-19T08:41:02.534Z,5.97
2018-09-19T08:43:30.209Z,4.30
2018-09-19T08:45:57.960Z,6.50
2018-09-19T08:50:53.331Z,6.00
2018-09-19T08:53:21.073Z,4.78
2018-09-19T08:55:48.834Z,4.27
2018-09-19T08:58:16.680Z,5.97
2018-09-19T09:00:44.635Z,4.97
2018-09-19T09:03:12.428Z,4.87
2018-09-19T09:05:40.204Z,5.70
2018-09-19T09:08:08.014Z,4.70
2018-09-19T09:10:36.360Z,5.10
2018-09-19T09:13:04.070Z,4.20
2018-09-19T09:15:31.791Z,4.73
2018-09-19T09:17:59.669Z,5.27
2018-09-19T09:20:27.479Z,5.00
2018-09-19T09:22:55.180Z,5.03
2018-09-19T09:27:47.197Z,4.58
2018-09-19T09:30:20.920Z,5.93
2018-09-19T09:32:48.695Z,4.20
2018-09-19T09:35:16.895Z,4.00
2018-09-19T09:37:44.976Z,6.22
2018-09-19T09:40:12.716Z,5.50
2018-09-19T09:42:40.617Z,4.87
2018-09-19T09:45:08.322Z,4.50
2018-09-19T09:50:03.314Z,4.93
2018-09-19T09:52:31.254Z,4.63
2018-09-19T09:54:58.935Z,4.27
2018-09-19T09:57:26.679Z,4.20
2018-09-19T09:59:54.404Z,4.10
2018-09-19T10:02:22.237Z,5.83
2018-09-19T10:04:50.021Z,4.20
2018-09-19T10:07:17.935Z,5.27
2018-09-19T10:09:45.952Z,5.80
2018-09-19T10:12:13.895Z,4.17
2018-09-19T10:14:41.918Z,4.00
2018-09-19T10:17:09.690Z,5.80
2018-09-19T10:19:37.510Z,5.92
2018-09-19T10:22:05.458Z,4.80
2018-09-19T10:24:33.194Z,4.03
2018-09-19T10:28:53.185Z,4.10
2018-09-19T10:31:21.193Z,3.80
2018-09-19T10:33:48.998Z,3.90
2018-09-19T10:36:16.677Z,4.10
2018-09-19T10:38:44.561Z,4.60
2018-09-19T10:41:12.317Z,4.17
2018-09-19T10:46:07.397Z,3.92
2018-09-19T10:48:35.218Z,4.67
2018-09-19T10:51:02.980Z,5.10
2018-09-19T10:53:30.969Z,4.47
2018-09-19T10:55:58.754Z,4.72
2018-09-19T10:58:27.436Z,3.63
2018-09-19T11:00:55.203Z,3.97
2018-09-19T11:03:24.309Z,4.03
2018-09-19T11:07:13.705Z,3.95
2018-09-19T11:09:41.461Z,4.27
2018-09-19T11:12:09.181Z,4.70
2018-09-19T11:14:37.029Z,4.00
2018-09-19T11:19:32.314Z,3.92
2018-09-19T11:21:59.966Z,5.25
2018-09-19T11:24:27.866Z,4.40
2018-09-19T11:26:55.622Z,4.27
2018-09-19T11:29:23.462Z,4.20
2018-09-19T11:31:51.530Z,4.10
2018-09-19T11:34:19.390Z,4.37
2018-09-19T11:36:47.200Z,5.60
2018-09-19T11:39:15.026Z,3.80
2018-09-19T11:41:42.972Z,4.58
2018-09-19T11:46:38.777Z,4.13
2018-09-19T11:49:06.910Z,4.53
2018-09-19T11:51:34.778Z,4.40
2018-09-19T11:54:02.850Z,3.90
2018-09-19T11:56:31.271Z,4.73
2018-09-19T11:58:58.993Z,4.20
2018-09-19T12:01:27.186Z,3.77
2018-09-19T12:03:55.059Z,3.60
2018-09-19T12:06:22.855Z,4.03
2018-09-19T12:08:50.686Z,3.67
2018-09-19T12:11:18.538Z,4.40
2018-09-19T12:13:46.225Z,3.80
2018-09-19T12:16:14.250Z,5.07
2018-09-19T12:21:09.217Z,4.37
2018-09-19T12:23:37.229Z,4.00
2018-09-19T12:26:05.338Z,4.27
2018-09-19T12:28:33.197Z,3.77
2018-09-19T12:31:01.040Z,4.30
2018-09-19T12:33:28.958Z,3.97
2018-09-19T12:35:56.822Z,4.43
2018-09-19T12:38:24.636Z,3.80
2018-09-19T12:40:52.498Z,3.67
2018-09-19T12:43:21.005Z,4.33
2018-09-19T12:48:15.971Z,4.00
2018-09-19T12:50:43.883Z,4.90
2018-09-19T12:53:11.717Z,5.70
2018-09-19T12:55:39.595Z,4.13
2018-09-19T12:58:07.417Z,4.63
2018-09-19T13:00:35.205Z,5.70
2018-09-19T13:03:02.932Z,4.57
2018-09-19T13:05:30.872Z,4.00
2018-09-19T13:10:26.500Z,4.43
2018-09-19T13:12:54.197Z,4.57
2018-09-19T13:15:21.843Z,4.37
2018-09-19T13:17:50.201Z,4.70
2018-09-19T13:20:18.018Z,4.40
2018-09-19T13:22:45.930Z,4.20
2018-09-19T13:25:13.821Z,5.17
2018-09-19T13:27:41.603Z,6.00
2018-09-19T13:30:09.466Z,4.57
2018-09-19T13:32:37.335Z,4.22
2018-09-19T13:35:05.038Z,4.50
2018-09-19T13:37:32.849Z,5.60
2018-09-19T13:40:00.672Z,5.83
2018-09-19T13:42:29.077Z,6.67
2018-09-19T13:44:56.937Z,5.53
2018-09-19T13:47:31.844Z,5.03
2018-09-19T13:50:09.714Z,6.00
2018-09-19T13:52:37.570Z,5.43
2018-09-19T13:55:05.494Z,7.90
2018-09-19T13:57:33.518Z,6.07
2018-09-19T14:02:28.601Z,7.17
2018-09-19T14:04:56.602Z,4.73
2018-09-19T14:09:52.014Z,5.23
2018-09-19T14:12:20.282Z,6.62
2018-09-19T14:14:48.019Z,6.53
2018-09-19T14:17:15.874Z,5.00
2018-09-19T14:22:10.963Z,7.47
2018-09-19T14:24:38.701Z,8.65
2018-09-19T14:27:06.682Z,6.22
2018-09-19T14:29:34.589Z,6.50
2018-09-19T14:32:02.638Z,6.50
2018-09-19T14:34:30.636Z,6.57
2018-09-19T14:39:34.651Z,6.08
2018-09-19T14:42:02.685Z,6.53
2018-09-19T14:44:30.534Z,6.20
2018-09-19T14:46:58.425Z,6.30
2018-09-19T14:49:26.198Z,5.93
2018-09-19T14:51:53.910Z,5.43
2018-09-19T14:54:21.712Z,5.63
2018-09-19T14:59:16.972Z,5.80
2018-09-19T15:04:12.182Z,7.47
2018-09-19T15:06:40.061Z,8.57
2018-09-19T15:09:09.712Z,9.27
2018-09-19T15:11:37.623Z,8.97
2018-09-19T15:14:05.578Z,9.17
2018-09-19T15:16:33.469Z,6.80
2018-09-19T15:21:28.622Z,5.40
2018-09-19T15:23:56.510Z,5.50
2018-09-19T15:28:51.794Z,7.83
2018-09-19T15:31:19.630Z,8.40
2018-09-19T15:33:47.310Z,8.00
2018-09-19T15:38:42.542Z,9.90
2018-09-19T15:41:10.589Z,8.87
2018-09-19T15:43:38.525Z,9.50
2018-09-19T15:46:06.210Z,10.73
2018-09-19T15:48:34.062Z,7.43
2018-09-19T15:51:01.951Z,7.27
2018-09-19T15:53:30.881Z,5.67
2018-09-19T15:58:26.651Z,6.28
2018-09-19T16:00:54.326Z,9.10
2018-09-19T16:03:23.011Z,8.60
2018-09-19T16:08:18.586Z,8.08
2018-09-19T16:10:46.602Z,10.83
2018-09-19T16:13:14.535Z,9.53
2018-09-19T16:20:21.535Z,6.78
2018-09-19T16:22:49.441Z,8.83
2018-09-19T16:27:44.602Z,8.05
2018-09-19T16:30:12.597Z,9.13
2018-09-19T16:35:07.640Z,6.77
2018-09-19T16:37:35.477Z,12.23
2018-09-19T16:40:03.181Z,16.43
2018-09-19T16:42:30.936Z,7.15
2018-09-19T16:44:58.843Z,19.07
2018-09-19T16:47:26.668Z,8.63
2018-09-19T16:49:54.628Z,9.17
2018-09-19T16:52:22.665Z,11.13
2018-09-19T16:54:50.493Z,11.33
2018-09-19T16:59:45.767Z,7.77
2018-09-19T17:02:13.640Z,10.63
2018-09-19T17:04:41.310Z,11.17
2018-09-19T17:07:09.304Z,7.53
2018-09-19T17:09:37.057Z,15.43
2018-09-19T17:12:04.910Z,6.30
2018-09-19T17:14:32.734Z,6.27
2018-09-19T17:17:00.718Z,12.70
2018-09-19T17:19:28.870Z,10.47
2018-09-19T17:21:56.633Z,9.93
2018-09-19T17:24:24.376Z,8.57
2018-09-19T17:29:19.309Z,10.58
2018-09-19T17:31:47.058Z,12.87
2018-09-19T17:34:14.794Z,6.67
2018-09-19T17:36:42.585Z,9.47
2018-09-19T17:39:11.814Z,10.67
2018-09-19T17:41:39.593Z,7.10
2018-09-19T17:44:07.546Z,16.97
2018-09-19T17:46:35.419Z,10.63
2018-09-19T17:49:03.057Z,7.50
2018-09-19T17:51:30.866Z,8.37
2018-09-19T17:53:58.898Z,11.77
2018-09-19T17:56:26.766Z,9.50
2018-09-19T17:58:54.958Z,9.50
2018-09-19T18:01:22.698Z,9.35
2018-09-19T18:03:50.482Z,9.50
2018-09-19T18:06:18.471Z,18.07
2018-09-19T18:08:46.159Z,10.10
2018-09-19T18:13:41.192Z,9.57
2018-09-19T18:16:08.810Z,11.48
2018-09-19T18:18:36.733Z,13.33
2018-09-19T18:21:04.537Z,10.67
2018-09-19T18:23:32.302Z,8.70
2018-09-19T18:26:00.159Z,9.78
2018-09-19T18:28:27.765Z,10.60
2018-09-19T18:30:55.606Z,12.13
2018-09-19T18:33:23.402Z,12.13
2018-09-19T18:38:36.779Z,13.55
2018-09-19T18:41:05.045Z,17.43
2018-09-19T18:43:32.934Z,11.38
2018-09-19T18:46:00.666Z,15.63
2018-09-19T18:48:29.189Z,12.23
2018-09-19T18:50:56.821Z,10.27
2018-09-19T18:53:24.661Z,12.63
2018-09-19T18:58:19.946Z,10.17
2018-09-19T19:03:15.219Z,14.33
2018-09-19T19:05:42.926Z,13.90
2018-09-19T19:08:10.666Z,10.43
2018-09-19T19:10:38.558Z,14.40
2018-09-19T19:13:06.213Z,15.60
2018-09-19T19:15:33.918Z,15.67
2018-09-19T19:18:01.692Z,12.33
2018-09-19T19:20:29.581Z,12.90
2018-09-19T19:22:57.423Z,14.67
2018-09-19T19:25:25.670Z,13.33
2018-09-19T19:27:53.513Z,11.47
2018-09-19T19:30:21.300Z,15.63
2018-09-19T19:32:48.969Z,11.43
2018-09-19T19:37:44.205Z,12.10
2018-09-19T19:40:11.841Z,13.93
2018-09-19T19:42:39.738Z,12.77
2018-09-19T19:45:07.530Z,12.90
2018-09-19T19:47:35.463Z,11.97
2018-09-19T19:50:03.578Z,11.60
2018-09-19T19:52:31.348Z,13.10
2018-09-19T19:54:59.053Z,12.93
2018-09-19T19:57:26.850Z,14.40
2018-09-19T19:59:54.644Z,11.93
2018-09-19T20:02:22.659Z,11.70
2018-09-19T20:04:50.520Z,14.60
2018-09-19T20:07:18.282Z,12.75
2018-09-19T20:09:46.011Z,12.97
2018-09-19T20:12:13.800Z,13.33
2018-09-19T20:14:41.735Z,13.43
2018-09-19T20:17:09.546Z,12.63
2018-09-19T20:19:37.211Z,12.50
2018-09-19T20:22:07.197Z,14.00
2018-09-19T20:24:34.748Z,23.10
2018-09-19T20:27:03.216Z,12.45
2018-09-19T20:29:30.891Z,12.30
2018-09-19T20:31:58.702Z,13.13
2018-09-19T20:34:26.517Z,12.10
2018-09-19T20:36:54.309Z,12.70
2018-09-19T20:39:22.172Z,11.90
2018-09-19T20:41:49.935Z,11.73
2018-09-19T20:44:17.799Z,13.90
2018-09-19T20:46:45.716Z,14.17
2018-09-19T20:49:13.582Z,11.83
2018-09-19T20:51:41.506Z,12.17
2018-09-19T20:54:09.268Z,11.30
2018-09-19T20:56:36.978Z,11.10
2018-09-19T20:59:05.306Z,14.40
2018-09-19T21:01:33.275Z,14.73
2018-09-19T21:04:01.211Z,12.47
2018-09-19T21:08:56.386Z,13.50
2018-09-19T21:11:24.215Z,11.67
2018-09-19T21:13:52.064Z,14.73
2018-09-19T21:16:20.040Z,10.90
2018-09-19T21:21:16.219Z,11.87
2018-09-19T21:23:43.974Z,17.00
2018-09-19T21:26:12.001Z,10.90
2018-09-19T21:28:39.909Z,13.38
2018-09-19T21:31:07.838Z,12.03
2018-09-19T21:33:35.771Z,11.70
2018-09-19T21:36:04.227Z,9.20
2018-09-19T21:38:31.926Z,10.07
2018-09-19T21:40:59.760Z,10.80
2018-09-19T21:43:27.794Z,12.27
2018-09-19T21:45:55.686Z,9.80
2018-09-19T21:48:23.567Z,11.23
2018-09-19T21:50:51.663Z,10.63
2018-09-19T21:53:19.580Z,11.88
2018-09-19T21:55:47.319Z,10.13
2018-09-19T22:00:44.002Z,9.60
2018-09-19T22:05:39.018Z,13.13
2018-09-19T22:08:06.922Z,9.45
2018-09-19T22:10:34.755Z,10.77
2018-09-19T22:13:02.590Z,10.03
2018-09-19T22:15:30.450Z,10.30
2018-09-19T22:17:58.203Z,10.23
2018-09-19T22:20:25.763Z,9.90
2018-09-19T22:22:54.495Z,11.80
2018-09-19T22:27:49.582Z,11.78
2018-09-19T22:30:17.345Z,10.30
2018-09-19T22:35:12.522Z,10.90
2018-09-19T22:37:40.374Z,9.90
2018-09-19T22:40:08.217Z,10.60
2018-09-19T22:42:36.344Z,11.50
2018-09-19T22:45:04.306Z,10.43
2018-09-19T22:47:32.321Z,13.03
2018-09-19T22:50:00.018Z,9.93
2018-09-19T22:52:27.846Z,11.85
2018-09-19T22:54:55.663Z,10.30
2018-09-19T22:57:23.306Z,11.60
2018-09-19T22:59:50.986Z,11.07
2018-09-19T23:02:18.725Z,13.22
2018-09-19T23:04:46.947Z,12.37
2018-09-19T23:07:14.662Z,10.48
2018-09-19T23:09:42.469Z,13.93
2018-09-19T23:12:10.218Z,18.75
2018-09-19T23:14:37.942Z,11.57
2018-09-19T23:17:06.002Z,10.70
2018-09-19T23:19:33.886Z,11.40
2018-09-19T23:22:01.993Z,10.50
2018-09-19T23:26:57.045Z,10.70
2018-09-19T23:29:25.834Z,9.43
2018-09-19T23:31:53.739Z,11.47
2018-09-19T23:34:21.567Z,10.67
2018-09-19T23:36:49.310Z,10.47
2018-09-19T23:39:17.079Z,10.83
2018-09-19T23:41:45.836Z,10.90
2018-09-19T23:44:13.585Z,11.10
2018-09-19T23:46:41.738Z,11.03
2018-09-19T23:49:09.560Z,9.80
2018-09-19T23:51:37.209Z,10.32
2018-09-19T23:54:04.757Z,10.90
2018-09-19T23:56:32.932Z,10.45
2018-09-19T23:59:00.846Z,11.13
